Time;durP1;ratioP1;P1;durP2;ratioP2;P2;SDS_P1;SDS_P2;PMS_P1;PMS_P2;Temp;Humidity;BMP_temperature;BMP_pressure;BME280_temperature;BME280_humidity;BME280_pressure;Samples;Min_cycle;Max_cycle;Signal;HPM_P1;HPM_P2
2022/05/31 00:01:28;;;;;;;1999.90;999.90;;;7.30;99.90;;;;;;5050612;28;20401;-79
2022/05/31 00:03:54;;;;;;;1999.90;999.90;;;7.30;99.90;;;;;;5069022;28;20047;-79
2022/05/31 00:06:20;;;;;;;1999.90;999.90;;;7.20;99.90;;;;;;5069136;28;20036;-79
2022/05/31 00:08:46;;;;;;;1999.90;999.90;;;7.20;99.90;;;;;;5056059;28;20254;-79
2022/05/31 00:11:26;;;;;;;1999.90;999.90;;;7.20;99.90;;;;;;5003508;28;20529;-79
2022/05/31 00:13:52;;;;;;;1999.90;999.90;;;7.20;99.90;;;;;;4985397;28;20084;-79
2022/05/31 00:16:17;;;;;;;1999.90;999.90;;;7.20;99.90;;;;;;5003699;28;20430;-79
2022/05/31 00:18:43;;;;;;;1999.90;999.90;;;7.20;99.90;;;;;;4986731;28;20042;-78
2022/05/31 00:21:09;;;;;;;1999.90;999.90;;;7.20;99.90;;;;;;5003075;28;20045;-79
2022/05/31 00:23:37;;;;;;;1999.90;999.90;;;7.30;99.90;;;;;;4988015;28;20541;-79
2022/05/31 00:26:02;;;;;;;1999.90;999.90;;;7.20;99.90;;;;;;5004929;28;20061;-79
2022/05/31 00:28:28;;;;;;;1999.90;999.90;;;7.30;99.90;;;;;;4970416;28;20045;-79
2022/05/31 00:30:53;;;;;;;1999.90;999.90;;;7.30;99.90;;;;;;5006865;28;20042;-79
2022/05/31 00:33:19;;;;;;;1999.90;999.90;;;7.40;99.90;;;;;;5005585;28;20491;-79
2022/05/31 00:35:48;;;;;;;1999.90;999.90;;;7.30;99.90;;;;;;5003153;28;20140;-79
2022/05/31 00:38:15;;;;;;;1999.90;999.90;;;7.30;99.90;;;;;;5001507;28;20442;-79
2022/05/31 00:40:40;;;;;;;1999.90;999.90;;;7.30;99.90;;;;;;5003882;28;20084;-79
2022/05/31 00:43:13;;;;;;;1999.90;999.90;;;7.40;99.90;;;;;;5005819;28;20535;-79
2022/05/31 00:45:44;;;;;;;1999.90;999.90;;;7.40;99.90;;;;;;5004140;28;20045;-79
2022/05/31 00:48:14;;;;;;;1999.90;999.90;;;7.40;99.90;;;;;;4993626;28;20040;-79
2022/05/31 00:50:50;;;;;;;1999.90;999.90;;;7.40;99.90;;;;;;5072789;28;20131;-79
2022/05/31 00:53:21;;;;;;;1999.90;999.90;;;7.40;99.90;;;;;;5051668;28;20040;-79
2022/05/31 00:55:55;;;;;;;1999.90;999.90;;;7.40;99.90;;;;;;5067706;28;20047;-79
2022/05/31 00:58:31;;;;;;;1999.90;999.90;;;7.40;99.90;;;;;;5045728;28;20047;-79
2022/05/31 01:01:00;;;;;;;1999.90;999.90;;;7.40;99.90;;;;;;5052004;28;20044;-79
2022/05/31 01:03:28;;;;;;;1999.90;999.90;;;7.50;99.90;;;;;;5072323;28;20040;-79
2022/05/31 01:05:54;;;;;;;1999.90;999.90;;;7.50;99.90;;;;;;5070588;28;20761;-79
2022/05/31 01:08:19;;;;;;;1999.90;999.90;;;7.60;99.90;;;;;;5059763;28;20040;-79
2022/05/31 01:10:45;;;;;;;1999.90;999.90;;;7.60;99.90;;;;;;5050522;28;20041;-79
2022/05/31 01:13:17;;;;;;;1999.90;999.90;;;7.60;99.90;;;;;;5049551;28;20047;-79
2022/05/31 01:15:45;;;;;;;1999.90;999.90;;;7.60;99.90;;;;;;5048549;28;20110;-79
2022/05/31 01:18:11;;;;;;;1999.90;999.90;;;7.60;99.90;;;;;;5070283;28;20536;-79
2022/05/31 01:20:38;;;;;;;1999.90;999.90;;;7.60;99.90;;;;;;5052640;28;20059;-79
2022/05/31 01:23:15;;;;;;;1999.90;999.90;;;7.70;99.90;;;;;;5064338;28;20040;-79
2022/05/31 01:25:53;;;;;;;1999.90;999.90;;;7.70;99.90;;;;;;5063115;28;20052;-79
2022/05/31 01:28:19;;;;;;;1999.90;999.90;;;7.70;99.90;;;;;;5047311;28;20032;-80
2022/05/31 01:31:05;;;;;;;1999.90;999.90;;;7.70;99.90;;;;;;5070633;28;20047;-79
2022/05/31 01:33:44;;;;;;;1999.90;999.90;;;7.70;99.90;;;;;;5068267;28;20040;-79
2022/05/31 01:36:15;;;;;;;1999.90;999.90;;;7.70;99.90;;;;;;5054056;28;20044;-79
2022/05/31 01:39:07;;;;;;;1999.90;999.90;;;7.70;99.90;;;;;;5056451;28;20168;-79
2022/05/31 01:41:41;;;;;;;1999.90;999.90;;;7.80;99.90;;;;;;5065010;28;20094;-79
2022/05/31 01:44:13;;;;;;;1999.90;999.90;;;7.80;99.90;;;;;;5057573;28;20436;-79
2022/05/31 01:46:39;;;;;;;1999.90;999.90;;;7.80;99.90;;;;;;5070358;28;20048;-79
2022/05/31 01:49:07;;;;;;;1999.90;999.90;;;7.80;99.90;;;;;;5069705;28;20037;-79
2022/05/31 01:51:35;;;;;;;1999.90;999.90;;;7.80;99.90;;;;;;5050009;28;20032;-79
2022/05/31 01:54:02;;;;;;;1999.90;999.90;;;7.90;99.90;;;;;;5071284;28;20040;-79
2022/05/31 01:56:30;;;;;;;1999.90;999.90;;;7.90;99.90;;;;;;5055020;28;20063;-79
2022/05/31 01:58:56;;;;;;;1999.90;999.90;;;7.90;99.90;;;;;;5051210;28;20388;-79
2022/05/31 02:01:23;;;;;;;1999.90;999.90;;;7.90;99.90;;;;;;5048621;28;20049;-79
2022/05/31 02:03:49;;;;;;;1999.90;999.90;;;7.90;99.90;;;;;;5073225;28;20070;-79
2022/05/31 02:06:33;;;;;;;1999.90;999.90;;;7.90;99.90;;;;;;5069445;28;20036;-79
2022/05/31 02:09:00;;;;;;;1999.90;999.90;;;8.00;99.90;;;;;;5066500;28;20173;-79
2022/05/31 02:11:27;;;;;;;1999.90;999.90;;;8.00;99.90;;;;;;5050779;28;20537;-79
2022/05/31 02:13:52;;;;;;;1999.90;999.90;;;8.00;99.90;;;;;;5058214;28;20120;-79
2022/05/31 02:16:18;;;;;;;1999.90;999.90;;;8.00;99.90;;;;;;5055452;28;20115;-79
2022/05/31 02:21:35;;;;;;;1999.90;999.90;;;8.00;99.90;;;;;;5067371;28;20056;-79
2022/05/31 02:24:05;;;;;;;1999.90;999.90;;;8.00;99.90;;;;;;5050942;28;20060;-79
2022/05/31 02:26:31;;;;;;;1999.90;999.90;;;8.00;99.90;;;;;;5057180;28;20047;-79
2022/05/31 02:28:56;;;;;;;1999.90;999.90;;;8.00;99.90;;;;;;5047326;28;20487;-79
2022/05/31 02:31:22;;;;;;;1999.90;999.90;;;8.00;99.90;;;;;;5030966;28;20037;-79
2022/05/31 02:33:47;;;;;;;1999.90;999.90;;;8.00;99.90;;;;;;5039283;28;20064;-79
2022/05/31 02:36:13;;;;;;;1999.90;999.90;;;8.00;99.90;;;;;;5056635;28;20040;-79
2022/05/31 02:38:40;;;;;;;1999.90;999.90;;;8.00;99.90;;;;;;5053795;28;20052;-79
2022/05/31 02:41:06;;;;;;;1999.90;999.90;;;8.00;99.90;;;;;;5045296;28;20068;-79
2022/05/31 02:43:32;;;;;;;1999.90;999.90;;;8.00;99.90;;;;;;5050476;28;20451;-79
2022/05/31 02:46:03;;;;;;;1999.90;999.90;;;7.90;99.90;;;;;;5045111;28;20494;-79
2022/05/31 02:48:29;;;;;;;1999.90;999.90;;;7.90;99.90;;;;;;5029546;28;20029;-79
2022/05/31 02:50:55;;;;;;;1999.90;999.90;;;7.90;99.90;;;;;;5017698;28;20041;-79
2022/05/31 02:53:21;;;;;;;1999.90;999.90;;;8.00;99.90;;;;;;5034055;28;20126;-79
2022/05/31 02:55:46;;;;;;;1999.90;999.90;;;7.90;99.90;;;;;;5038960;28;20076;-79
2022/05/31 02:58:13;;;;;;;1999.90;999.90;;;7.90;99.90;;;;;;5048981;28;20058;-79
2022/05/31 03:00:38;;;;;;;1999.90;999.90;;;7.90;99.90;;;;;;5046519;28;20041;-79
2022/05/31 03:03:04;;;;;;;1999.90;999.90;;;8.00;99.90;;;;;;5054221;28;20051;-79
2022/05/31 03:05:30;;;;;;;1999.90;999.90;;;8.00;99.90;;;;;;5047747;28;20047;-79
2022/05/31 03:07:55;;;;;;;1999.90;999.90;;;8.00;99.90;;;;;;5058568;28;20040;-79
2022/05/31 03:10:21;;;;;;;1999.90;999.90;;;8.00;99.90;;;;;;5033811;28;20036;-79
2022/05/31 03:12:48;;;;;;;1999.90;999.90;;;8.00;99.90;;;;;;5058480;28;20478;-79
2022/05/31 03:15:17;;;;;;;1999.90;999.90;;;8.00;99.90;;;;;;5059157;28;20045;-79
2022/05/31 03:18:07;;;;;;;1999.90;999.90;;;8.00;99.90;;;;;;5056373;28;20044;-79
2022/05/31 03:20:52;;;;;;;1999.90;999.90;;;8.00;99.90;;;;;;5026828;28;20415;-79
2022/05/31 03:23:29;;;;;;;1999.90;999.90;;;8.00;99.90;;;;;;5028479;28;20045;-79
2022/05/31 03:26:00;;;;;;;1999.90;999.90;;;8.00;99.90;;;;;;5062585;28;20123;-79
2022/05/31 03:28:26;;;;;;;1999.90;999.90;;;8.00;99.90;;;;;;5051365;28;20500;-79
2022/05/31 03:30:52;;;;;;;1999.90;999.90;;;8.00;99.90;;;;;;5064638;28;20101;-79
2022/05/31 03:33:21;;;;;;;1999.90;999.90;;;8.00;99.90;;;;;;5042296;28;20045;-79
2022/05/31 03:35:47;;;;;;;1999.90;999.90;;;8.00;99.90;;;;;;5063188;28;20343;-79
2022/05/31 03:38:13;;;;;;;1999.90;999.90;;;8.00;99.90;;;;;;5057164;28;20114;-79
2022/05/31 03:40:56;;;;;;;1999.90;999.90;;;8.10;99.90;;;;;;5042913;28;20052;-79
2022/05/31 03:43:24;;;;;;;1999.90;999.90;;;8.10;99.90;;;;;;5066878;28;20040;-79
2022/05/31 03:45:50;;;;;;;1999.90;999.90;;;8.10;99.90;;;;;;5045443;28;20048;-79
2022/05/31 03:48:16;;;;;;;1999.90;999.90;;;8.10;99.90;;;;;;5076376;28;20123;-79
2022/05/31 03:50:42;;;;;;;1999.90;999.90;;;8.10;99.90;;;;;;5049475;28;20085;-79
2022/05/31 03:53:13;;;;;;;1999.90;999.90;;;8.10;99.90;;;;;;5064480;28;20488;-79
2022/05/31 03:55:41;;;;;;;1999.90;999.90;;;8.20;99.90;;;;;;5072913;28;20051;-79
2022/05/31 03:58:08;;;;;;;1999.90;999.90;;;8.20;99.90;;;;;;5052298;28;20413;-79
2022/05/31 04:00:34;;;;;;;1999.90;999.90;;;8.30;99.90;;;;;;5066282;28;20059;-79
2022/05/31 04:03:00;;;;;;;1999.90;999.90;;;8.30;99.90;;;;;;5065464;28;20190;-79
2022/05/31 04:05:26;;;;;;;1999.90;999.90;;;8.30;99.90;;;;;;5064694;28;20041;-79
2022/05/31 04:07:53;;;;;;;1999.90;999.90;;;8.30;99.90;;;;;;5069858;28;20081;-80
2022/05/31 04:10:19;;;;;;;1999.90;999.90;;;8.30;99.90;;;;;;5066104;28;20090;-79
2022/05/31 04:12:45;;;;;;;1999.90;999.90;;;8.40;99.90;;;;;;5067222;28;20044;-79
2022/05/31 04:15:11;;;;;;;1999.90;999.90;;;8.40;99.90;;;;;;5071533;28;20050;-79
2022/05/31 04:17:36;;;;;;;1999.90;999.90;;;8.40;99.90;;;;;;5058344;28;20569;-79
2022/05/31 04:20:03;;;;;;;1999.90;999.90;;;8.40;99.90;;;;;;5050193;28;20054;-79
2022/05/31 04:22:28;;;;;;;1999.90;999.90;;;8.50;99.90;;;;;;5062584;28;20047;-79
2022/05/31 04:24:57;;;;;;;1999.90;999.90;;;8.50;99.90;;;;;;5054666;28;20417;-79
2022/05/31 04:27:23;;;;;;;1999.90;999.90;;;8.50;99.90;;;;;;5068064;28;20044;-79
2022/05/31 04:29:49;;;;;;;1999.90;999.90;;;8.60;99.90;;;;;;5046054;28;20033;-79
2022/05/31 04:32:16;;;;;;;1999.90;999.90;;;8.60;99.90;;;;;;5063059;28;20035;-79
2022/05/31 04:34:42;;;;;;;1999.90;999.90;;;8.60;99.90;;;;;;5063702;28;20075;-79
2022/05/31 04:37:09;;;;;;;1999.90;999.90;;;8.60;99.90;;;;;;5054555;28;20545;-79
2022/05/31 04:39:35;;;;;;;1999.90;999.90;;;8.70;99.90;;;;;;5050054;28;20044;-79
2022/05/31 04:42:01;;;;;;;1999.90;999.90;;;8.70;99.90;;;;;;5065397;28;20044;-79
2022/05/31 04:44:26;;;;;;;1999.90;999.90;;;8.80;99.90;;;;;;5048927;28;20070;-79
2022/05/31 04:46:53;;;;;;;1999.90;999.90;;;8.80;99.90;;;;;;5065580;28;20067;-79
2022/05/31 04:49:19;;;;;;;1999.90;999.90;;;8.80;99.90;;;;;;5052180;28;20035;-79
2022/05/31 04:51:45;;;;;;;1999.90;999.90;;;8.90;99.90;;;;;;5042229;28;20040;-79
2022/05/31 04:54:11;;;;;;;1999.90;999.90;;;8.90;99.90;;;;;;5049001;28;20501;-79
2022/05/31 04:56:37;;;;;;;1999.90;999.90;;;9.00;99.90;;;;;;5049911;28;20519;-79
2022/05/31 04:59:02;;;;;;;1999.90;999.90;;;9.00;99.90;;;;;;5064369;28;20077;-79
2022/05/31 05:01:28;;;;;;;1999.90;999.90;;;9.10;99.90;;;;;;5043152;28;20071;-80
2022/05/31 05:03:55;;;;;;;1999.90;999.90;;;9.10;99.90;;;;;;5048313;28;20079;-79
2022/05/31 05:06:21;;;;;;;1999.90;999.90;;;9.20;99.90;;;;;;5047032;28;20079;-80
2022/05/31 05:08:47;;;;;;;1999.90;999.90;;;9.20;99.90;;;;;;5045191;28;20051;-79
2022/05/31 05:11:16;;;;;;;1999.90;999.90;;;9.30;99.90;;;;;;5074480;28;20447;-79
2022/05/31 05:13:42;;;;;;;1999.90;999.90;;;9.40;99.90;;;;;;5055480;28;20036;-78
2022/05/31 05:16:09;;;;;;;1999.90;999.90;;;9.50;99.90;;;;;;5069193;28;20093;-79
2022/05/31 05:18:35;;;;;;;1999.90;999.90;;;9.50;99.90;;;;;;5070257;28;20051;-79
2022/05/31 05:21:03;;;;;;;1999.90;999.90;;;9.60;99.90;;;;;;5069924;28;20040;-79
2022/05/31 05:23:28;;;;;;;1999.90;999.90;;;9.70;99.90;;;;;;5048905;28;20060;-79
2022/05/31 05:25:56;;;;;;;1999.90;999.90;;;9.80;99.90;;;;;;5063227;28;20409;-79
2022/05/31 05:31:24;;;;;;;1999.90;999.90;;;9.80;99.90;;;;;;5072516;28;20047;-78
2022/05/31 05:33:50;;;;;;;;;;;9.90;99.90;;;;;;5075205;28;20406;-79
2022/05/31 05:36:16;;;;;;;1999.90;999.90;;;9.90;99.90;;;;;;5067773;28;19921;-80
2022/05/31 05:38:42;;;;;;;1999.90;999.90;;;10.00;99.90;;;;;;5077676;28;20050;-79
2022/05/31 05:41:08;;;;;;;1999.90;999.90;;;10.00;99.90;;;;;;5058071;28;20048;-79
2022/05/31 05:43:34;;;;;;;1999.90;999.90;;;10.10;99.90;;;;;;5058142;28;20055;-79
2022/05/31 05:46:00;;;;;;;1999.90;999.90;;;10.20;99.90;;;;;;5043864;28;20512;-79
2022/05/31 05:48:25;;;;;;;1999.90;999.90;;;10.20;99.90;;;;;;5048682;28;20061;-79
2022/05/31 05:50:51;;;;;;;1999.90;999.90;;;10.30;99.90;;;;;;5080568;28;20040;-79
2022/05/31 05:53:16;;;;;;;1999.90;999.90;;;10.30;99.90;;;;;;5046512;28;20086;-79
2022/05/31 05:55:42;;;;;;;1999.90;999.90;;;10.40;99.90;;;;;;5055252;28;20058;-79
2022/05/31 05:58:08;;;;;;;1999.90;999.90;;;10.50;99.90;;;;;;5046482;28;20040;-80
2022/05/31 06:00:46;;;;;;;1999.90;999.90;;;10.60;99.90;;;;;;5051033;28;20051;-79
2022/05/31 06:03:19;;;;;;;1999.90;999.90;;;10.70;99.90;;;;;;5059054;28;20489;-79
2022/05/31 06:05:47;;;;;;;1999.90;999.90;;;10.80;99.90;;;;;;5050783;28;20409;-79
2022/05/31 06:08:26;;;;;;;1999.90;999.90;;;10.90;99.90;;;;;;5062194;28;20039;-79
2022/05/31 06:11:39;;;;;;;1999.90;999.90;;;10.90;99.90;;;;;;5050070;28;20032;-79
2022/05/31 06:14:12;;;;;;;1999.90;999.90;;;11.00;99.90;;;;;;4987401;28;20037;-79
2022/05/31 06:16:43;;;;;;;1999.90;999.90;;;11.10;99.90;;;;;;5025394;28;20033;-79
2022/05/31 06:19:21;;;;;;;1999.90;999.90;;;11.10;99.90;;;;;;4999713;28;20046;-79
2022/05/31 06:21:49;;;;;;;1999.90;999.90;;;11.30;99.90;;;;;;4992640;28;20050;-77
2022/05/31 06:24:16;;;;;;;1999.90;999.90;;;11.30;99.90;;;;;;4994095;28;20058;-78
2022/05/31 06:26:42;;;;;;;1999.90;999.90;;;11.40;99.90;;;;;;5005599;28;20060;-79
2022/05/31 06:29:09;;;;;;;1999.90;999.90;;;11.50;99.90;;;;;;4991778;28;20050;-79
2022/05/31 06:31:34;;;;;;;1999.90;999.90;;;11.50;99.90;;;;;;5021176;28;20522;-78
2022/05/31 06:34:00;;;;;;;1999.90;999.90;;;11.60;99.90;;;;;;5008210;28;20613;-79
2022/05/31 06:36:26;;;;;;;1999.90;999.90;;;11.60;99.90;;;;;;5023887;28;20589;-78
2022/05/31 06:38:51;;;;;;;1999.90;999.90;;;11.70;99.90;;;;;;5015244;28;20055;-79
2022/05/31 06:41:17;;;;;;;1999.90;999.90;;;11.80;99.90;;;;;;5010375;28;20522;-79
2022/05/31 06:43:43;;;;;;;1999.90;999.90;;;11.90;99.90;;;;;;5009639;28;20049;-79
2022/05/31 06:46:10;;;;;;;1999.90;999.90;;;12.00;99.90;;;;;;5042233;28;20159;-78
2022/05/31 06:48:36;;;;;;;1999.90;999.90;;;12.10;99.90;;;;;;5073879;28;20081;-80
2022/05/31 06:51:10;;;;;;;1999.90;999.90;;;12.10;99.90;;;;;;5066060;28;20489;-78
2022/05/31 06:59:04;;;;;;;1999.90;999.90;;;12.30;99.90;;;;;;5061225;28;20498;-79
2022/05/31 07:01:35;;;;;;;1999.90;999.90;;;12.40;99.90;;;;;;5051145;28;20043;-80
2022/05/31 07:04:01;;;;;;;1999.90;999.90;;;12.50;99.90;;;;;;5053763;28;20087;-80
2022/05/31 07:06:28;;;;;;;1999.90;999.90;;;12.60;99.90;;;;;;5043574;28;20078;-79
2022/05/31 07:08:54;;;;;;;1999.90;999.90;;;12.70;99.90;;;;;;5042238;28;20082;-78
2022/05/31 07:11:21;;;;;;;1999.90;999.90;;;12.80;99.90;;;;;;5056359;28;20765;-77
2022/05/31 07:13:47;;;;;;;1999.90;999.90;;;12.90;99.90;;;;;;5050907;28;20031;-79
2022/05/31 07:16:13;;;;;;;1999.90;999.90;;;13.10;99.90;;;;;;5045087;28;20040;-80
2022/05/31 07:18:39;;;;;;;1999.90;999.90;;;13.30;99.90;;;;;;5048751;28;20051;-79
2022/05/31 07:21:04;;;;;;;1999.90;999.90;;;13.40;99.90;;;;;;5053353;28;20078;-78
2022/05/31 07:23:30;;;;;;;1999.90;999.90;;;13.50;99.90;;;;;;5067444;28;20055;-79
2022/05/31 07:25:57;;;;;;;1999.90;999.90;;;13.60;99.90;;;;;;5062282;28;20062;-78
2022/05/31 07:28:23;;;;;;;1999.90;999.90;;;13.70;99.90;;;;;;5046797;28;20032;-77
2022/05/31 07:30:48;;;;;;;1999.90;999.90;;;13.70;99.90;;;;;;5070753;28;20520;-79
2022/05/31 07:33:14;;;;;;;1999.90;999.90;;;13.80;99.90;;;;;;5047996;28;20401;-78
2022/05/31 07:35:40;;;;;;;1999.90;999.90;;;14.00;99.90;;;;;;5049861;28;20098;-78
2022/05/31 07:38:05;;;;;;;1999.90;999.90;;;15.00;99.90;;;;;;5063094;28;20087;-79
2022/05/31 07:40:31;;;;;;;1999.90;999.90;;;16.10;99.90;;;;;;5059362;28;20040;-79
2022/05/31 07:42:56;;;;;;;1999.90;999.90;;;16.70;99.90;;;;;;5048044;28;20069;-79
2022/05/31 07:45:23;;;;;;;1999.90;999.90;;;16.90;99.90;;;;;;5066208;28;20048;-78
2022/05/31 07:47:49;;;;;;;1999.90;999.90;;;17.00;99.90;;;;;;5042805;28;20072;-78
2022/05/31 07:50:15;;;;;;;1999.90;999.90;;;17.00;99.90;;;;;;5063565;28;20078;-78
2022/05/31 07:52:41;;;;;;;1999.90;999.90;;;17.10;99.90;;;;;;5046786;28;20052;-78
2022/05/31 07:55:07;;;;;;;1999.90;999.90;;;17.40;99.90;;;;;;5065190;28;20051;-78
2022/05/31 08:00:17;;;;;;;1999.90;999.90;;;17.80;99.90;;;;;;5060599;28;20048;-80
2022/05/31 08:02:43;;;;;;;1999.90;999.90;;;17.80;99.90;;;;;;5065216;28;20059;-78
2022/05/31 08:05:08;;;;;;;1999.90;999.90;;;17.80;99.90;;;;;;5048214;28;20032;-78
2022/05/31 08:07:34;;;;;;;1999.90;999.90;;;17.60;99.90;;;;;;5053813;28;20040;-80
2022/05/31 08:10:00;;;;;;;1999.90;999.90;;;17.60;99.90;;;;;;5050269;28;20086;-76
2022/05/31 08:12:25;;;;;;;1999.90;999.90;;;17.70;99.90;;;;;;5058685;28;20040;-77
2022/05/31 08:14:51;;;;;;;1999.90;999.90;;;17.60;99.90;;;;;;5064193;28;20040;-78
2022/05/31 08:17:17;;;;;;;1999.90;999.90;;;17.60;99.90;;;;;;5051971;28;20477;-79
2022/05/31 08:19:43;;;;;;;1999.90;999.90;;;17.60;99.90;;;;;;5047610;28;20044;-79
2022/05/31 08:22:08;;;;;;;1999.90;999.90;;;17.70;99.90;;;;;;5060441;28;20041;-79
2022/05/31 08:24:34;;;;;;;1999.90;999.90;;;17.70;99.90;;;;;;5060670;28;20421;-78
2022/05/31 08:27:00;;;;;;;1999.90;999.90;;;17.60;99.90;;;;;;5043190;28;20411;-78
2022/05/31 08:29:28;;;;;;;1999.90;999.90;;;17.60;99.90;;;;;;5063273;28;20052;-77
2022/05/31 08:31:58;;;;;;;1999.90;999.90;;;17.50;99.90;;;;;;5050310;28;20051;-78
2022/05/31 08:34:27;;;;;;;1999.90;999.90;;;17.50;99.90;;;;;;5075081;28;20044;-79
2022/05/31 08:36:53;;;;;;;1999.90;999.90;;;17.60;99.90;;;;;;5070689;28;20047;-77
2022/05/31 08:39:19;;;;;;;1999.90;999.90;;;18.10;99.90;;;;;;5060697;28;20044;-78
2022/05/31 08:41:47;;;;;;;1999.90;999.90;;;18.70;99.90;;;;;;5051995;28;20049;-79
2022/05/31 08:44:28;;;;;;;1999.90;999.90;;;19.40;99.90;;;;;;5061244;28;20048;-80
2022/05/31 08:47:01;;;;;;;1999.90;999.90;;;20.00;99.90;;;;;;5056593;28;20036;-79
2022/05/31 08:52:53;;;;;;;1999.90;999.90;;;20.90;99.90;;;;;;5064258;28;20140;-78
2022/05/31 08:58:35;;;;;;;1999.90;999.90;;;21.10;99.90;;;;;;5003146;28;20108;-79
2022/05/31 09:01:03;;;;;;;1999.90;999.90;;;21.10;99.90;;;;;;5057448;28;20432;-78
2022/05/31 09:03:36;;;;;;;1999.90;999.90;;;21.40;99.90;;;;;;5064495;28;20048;-77
2022/05/31 09:06:10;;;;;;;1999.90;999.90;;;21.50;99.90;;;;;;5066433;28;20056;-79
2022/05/31 09:08:48;;;;;;;1999.90;999.90;;;21.60;98.30;;;;;;5044296;28;20404;-79
2022/05/31 09:11:21;;;;;;;1999.90;999.90;;;21.80;93.70;;;;;;5061035;28;20375;-78
2022/05/31 09:14:03;;;;;;;1999.90;999.90;;;21.90;95.50;;;;;;5079114;28;20119;-80
2022/05/31 09:16:54;;;;;;;1999.90;999.90;;;21.80;95.70;;;;;;5050330;28;20398;-80
2022/05/31 09:19:56;;;;;;;1999.90;999.90;;;21.20;91.90;;;;;;5063431;28;20040;-75
2022/05/31 09:22:22;;;;;;;1999.90;999.90;;;21.00;98.00;;;;;;5021665;28;20044;-79
2022/05/31 09:24:47;;;;;;;1999.90;999.90;;;20.80;92.40;;;;;;5058953;28;20052;-78
2022/05/31 09:27:41;;;;;;;1999.90;999.90;;;20.50;99.90;;;;;;5048647;28;20148;-79
2022/05/31 09:30:25;;;;;;;1999.90;999.90;;;20.40;91.20;;;;;;5058005;28;20481;-78
2022/05/31 09:33:19;;;;;;;1999.90;999.90;;;20.30;88.50;;;;;;5056999;28;20047;-78
2022/05/31 09:35:47;;;;;;;1999.90;999.90;;;20.30;95.80;;;;;;5058513;28;20135;-78
2022/05/31 09:38:42;;;;;;;1999.90;999.90;;;19.80;97.80;;;;;;5058436;28;20543;-77
2022/05/31 09:41:25;;;;;;;1999.90;999.90;;;19.30;93.80;;;;;;5013789;28;20044;-77
2022/05/31 09:43:57;;;;;;;1999.90;999.90;;;19.30;95.50;;;;;;5052492;28;20044;-80
2022/05/31 09:46:38;;;;;;;1999.90;999.90;;;19.30;92.40;;;;;;5065745;28;20503;-79
2022/05/31 09:49:36;;;;;;;1999.90;999.90;;;19.30;95.40;;;;;;5075006;28;20082;-77
2022/05/31 09:52:03;;;;;;;1999.90;999.90;;;18.90;95.90;;;;;;5049473;28;20040;-79
2022/05/31 09:57:27;;;;;;;1999.90;999.90;;;18.70;94.90;;;;;;5069072;28;20107;-77
2022/05/31 10:00:01;;;;;;;1999.90;999.90;;;19.10;97.80;;;;;;5051134;28;20044;-79
2022/05/31 10:02:36;;;;;;;1999.90;999.90;;;19.30;88.40;;;;;;5073225;28;20048;-79
2022/05/31 10:05:14;;;;;;;1999.90;999.90;;;19.10;92.50;;;;;;5054016;28;20126;-79
2022/05/31 10:07:40;;;;;;;1999.90;999.90;;;18.90;92.50;;;;;;5043076;28;20053;-77
2022/05/31 10:10:11;;;;;;;1999.90;999.90;;;18.80;98.30;;;;;;5068320;28;20487;-79
2022/05/31 10:12:49;;;;;;;1999.90;999.90;;;18.80;94.20;;;;;;5072373;28;20040;-77
2022/05/31 10:15:30;;;;;;;1999.90;999.90;;;18.80;94.00;;;;;;5070500;28;20047;-79
2022/05/31 10:18:01;;;;;;;1999.90;999.90;;;18.80;92.80;;;;;;5048297;28;20040;-78
2022/05/31 10:20:27;;;;;;;1999.90;999.90;;;18.90;98.80;;;;;;5071469;28;20063;-77
2022/05/31 10:22:57;;;;;;;1999.90;999.90;;;19.00;92.80;;;;;;5055533;28;20477;-76
2022/05/31 10:25:36;;;;;;;1999.90;999.90;;;19.40;98.80;;;;;;5051435;28;20098;-76
2022/05/31 10:28:09;;;;;;;1999.90;999.90;;;20.00;96.10;;;;;;5069494;28;20048;-77
2022/05/31 10:30:36;;;;;;;1999.90;999.90;;;20.60;93.80;;;;;;5068802;28;20048;-79
2022/05/31 10:33:16;;;;;;;1999.90;999.90;;;20.90;95.10;;;;;;5046258;28;20078;-77
2022/05/31 10:35:43;;;;;;;1999.90;999.90;;;20.90;94.70;;;;;;5063823;28;20047;-77
2022/05/31 10:38:17;;;;;;;1999.90;999.90;;;20.80;93.20;;;;;;5062902;28;20032;-77
2022/05/31 10:40:58;;;;;;;1999.90;999.90;;;20.90;95.10;;;;;;5062717;28;20040;-78
2022/05/31 10:43:35;;;;;;;1999.90;999.90;;;20.90;91.80;;;;;;5062085;28;20042;-77
2022/05/31 10:46:08;;;;;;;1999.90;999.90;;;20.90;84.30;;;;;;5051897;28;20032;-77
2022/05/31 10:48:46;;;;;;;1999.90;999.90;;;20.80;92.00;;;;;;5053312;28;20040;-77
2022/05/31 10:51:34;;;;;;;1999.90;999.90;;;20.60;91.10;;;;;;5058766;28;20035;-77
2022/05/31 10:54:21;;;;;;;1999.90;999.90;;;20.10;80.90;;;;;;5067398;28;20058;-78
2022/05/31 10:56:47;;;;;;;1999.90;999.90;;;19.80;84.30;;;;;;5061632;28;20098;-77
2022/05/31 10:59:18;;;;;;;1999.90;999.90;;;19.50;89.70;;;;;;5044430;28;20283;-77
2022/05/31 11:01:56;;;;;;;1999.90;999.90;;;19.30;92.80;;;;;;5043261;28;20058;-76
2022/05/31 11:04:42;;;;;;;1999.90;999.90;;;19.20;92.40;;;;;;5067020;28;20467;-79
2022/05/31 11:07:27;;;;;;;1999.90;999.90;;;19.10;92.90;;;;;;5045364;28;20681;-77
2022/05/31 11:13:07;;;;;;;1999.90;999.90;;;18.90;91.30;;;;;;5060403;28;20040;-78
2022/05/31 11:15:49;;;;;;;1999.90;999.90;;;19.10;92.20;;;;;;5040872;28;20054;-77
2022/05/31 11:18:14;;;;;;;1999.90;999.90;;;19.30;93.30;;;;;;5057528;28;20086;-76
2022/05/31 11:20:59;;;;;;;1999.90;999.90;;;19.60;93.40;;;;;;5055991;28;20052;-77
2022/05/31 11:23:46;;;;;;;1999.90;999.90;;;19.80;91.80;;;;;;5061132;28;20416;-77
2022/05/31 11:26:24;;;;;;;1999.90;999.90;;;19.90;90.10;;;;;;5066035;28;20044;-77
2022/05/31 11:29:17;;;;;;;1999.90;999.90;;;20.00;92.60;;;;;;5048153;28;20040;-77
2022/05/31 11:31:54;;;;;;;1999.90;999.90;;;20.10;92.70;;;;;;5060223;28;20045;-77
2022/05/31 11:35:01;;;;;;;1999.90;999.90;;;20.00;79.80;;;;;;5063351;28;20079;-77
2022/05/31 11:37:36;;;;;;;1999.90;999.90;;;20.10;84.00;;;;;;4967352;28;20057;-78
2022/05/31 11:40:15;;;;;;;1999.90;999.90;;;20.10;75.50;;;;;;4981502;28;20411;-77
2022/05/31 11:43:01;;;;;;;1999.90;999.90;;;20.10;90.50;;;;;;4977295;28;20077;-78
2022/05/31 11:45:59;;;;;;;1999.90;999.90;;;20.20;90.00;;;;;;4987342;28;20507;-77
2022/05/31 11:48:38;;;;;;;1999.90;999.90;;;20.30;83.20;;;;;;4964434;28;20392;-76
2022/05/31 11:51:15;;;;;;;1999.90;999.90;;;20.30;91.50;;;;;;4981840;28;20533;-76
2022/05/31 11:53:56;;;;;;;1999.90;999.90;;;20.20;80.30;;;;;;4974056;28;20045;-76
2022/05/31 11:56:28;;;;;;;1999.90;999.90;;;19.80;82.40;;;;;;4972737;28;20143;-76
2022/05/31 11:58:56;;;;;;;1999.90;999.90;;;19.40;84.60;;;;;;4971117;28;20495;-76
2022/05/31 12:01:32;;;;;;;1999.90;999.90;;;18.90;76.10;;;;;;4980238;28;20057;-77
2022/05/31 12:04:10;;;;;;;1999.90;999.90;;;18.70;79.60;;;;;;4963048;28;20066;-77
2022/05/31 12:06:48;;;;;;;1999.90;999.90;;;18.50;85.60;;;;;;4967319;28;20530;-77
2022/05/31 12:09:24;;;;;;;1999.90;999.90;;;18.50;82.90;;;;;;5063993;28;20402;-78
2022/05/31 12:12:07;;;;;;;1999.90;999.90;;;18.50;77.70;;;;;;5046820;28;20094;-77
2022/05/31 12:14:40;;;;;;;1999.90;999.90;;;18.50;84.60;;;;;;5047122;28;20133;-77
2022/05/31 12:17:07;;;;;;;1999.90;999.90;;;18.60;90.90;;;;;;5033304;28;20078;-76
2022/05/31 12:19:44;;;;;;;1999.90;999.90;;;18.60;86.40;;;;;;5045396;28;20040;-77
2022/05/31 12:22:26;;;;;;;1999.90;999.90;;;18.60;90.80;;;;;;5051790;28;20061;-78
2022/05/31 12:25:04;;;;;;;1999.90;999.90;;;18.60;79.20;;;;;;5064750;28;20144;-78
2022/05/31 12:27:52;;;;;;;1999.90;999.90;;;18.60;85.90;;;;;;5045242;28;20297;-78
2022/05/31 12:30:28;;;;;;;1999.90;999.90;;;18.60;78.30;;;;;;5053630;28;20513;-77
2022/05/31 12:32:54;;;;;;;1999.90;999.90;;;18.70;90.20;;;;;;5067219;28;20036;-79
2022/05/31 12:35:32;;;;;;;1999.90;999.90;;;18.60;87.20;;;;;;5072903;28;20131;-79
2022/05/31 12:38:00;;;;;;;1999.90;999.90;;;18.80;84.40;;;;;;5059589;28;20044;-79
2022/05/31 12:40:47;;;;;;;1999.90;999.90;;;18.80;81.20;;;;;;5065330;28;20033;-79
2022/05/31 12:43:16;;;;;;;1999.90;999.90;;;18.90;81.00;;;;;;5060415;28;20048;-78
2022/05/31 12:45:44;;;;;;;1999.90;999.90;;;18.90;80.80;;;;;;5066250;28;20097;-78
2022/05/31 12:48:25;;;;;;;1999.90;999.90;;;18.90;76.90;;;;;;5067992;28;20741;-78